createdAt,value
2022-10-02T00:02:27.172Z,13.17
2022-10-02T00:05:15.832Z,13.15
2022-10-02T00:07:51.708Z,13.20
2022-10-02T00:10:32.365Z,13.22
2022-10-02T00:13:03.146Z,13.27
2022-10-02T00:15:32.414Z,13.30
2022-10-02T00:18:04.375Z,13.30
2022-10-02T00:20:43.741Z,13.36
2022-10-02T00:23:19.024Z,13.40
2022-10-02T00:26:14.652Z,13.45
2022-10-02T00:28:54.470Z,13.46
2022-10-02T00:31:29.991Z,13.48
2022-10-02T00:34:21.487Z,13.50
2022-10-02T00:37:06.038Z,13.53
2022-10-02T00:39:53.166Z,13.53
2022-10-02T00:42:19.478Z,13.52
2022-10-02T00:45:12.157Z,13.53
2022-10-02T00:48:03.320Z,13.53
2022-10-02T00:50:44.173Z,13.53
2022-10-02T00:53:46.818Z,13.57
2022-10-02T00:56:27.270Z,13.53
2022-10-02T00:59:05.696Z,13.51
2022-10-02T01:01:55.307Z,13.48
2022-10-02T01:04:31.769Z,13.46
2022-10-02T01:06:58.343Z,13.41
2022-10-02T01:09:25.527Z,13.40
2022-10-02T01:11:52.393Z,13.36
2022-10-02T01:14:18.935Z,13.36
2022-10-02T01:16:46.073Z,13.37
2022-10-02T01:19:33.104Z,13.39
2022-10-02T01:22:23.686Z,13.38
2022-10-02T01:24:51.695Z,13.39
2022-10-02T01:27:18.517Z,13.40
2022-10-02T01:29:49.346Z,13.42
2022-10-02T01:32:16.877Z,13.43
2022-10-02T01:34:43.569Z,13.45
2022-10-02T01:37:10.743Z,13.46
2022-10-02T01:39:37.416Z,13.46
2022-10-02T01:42:04.355Z,13.49
2022-10-02T01:44:31.961Z,13.50
2022-10-02T01:47:07.993Z,13.53
2022-10-02T01:49:37.556Z,13.53
2022-10-02T01:52:28.558Z,13.58
2022-10-02T01:55:38.456Z,13.56
2022-10-02T01:58:35.285Z,13.56
2022-10-02T02:01:27.156Z,13.55
2022-10-02T02:04:23.239Z,13.50
2022-10-02T02:06:49.518Z,13.47
2022-10-02T02:09:15.817Z,13.45
2022-10-02T02:11:53.592Z,13.44
2022-10-02T02:14:27.979Z,13.45
2022-10-02T02:17:02.276Z,13.44
2022-10-02T02:19:37.297Z,13.46
2022-10-02T02:22:12.014Z,13.45
2022-10-02T02:24:47.435Z,13.43
2022-10-02T02:27:18.429Z,13.41
2022-10-02T02:29:48.146Z,13.38
2022-10-02T02:32:19.844Z,13.35
2022-10-02T02:34:52.449Z,13.32
2022-10-02T02:37:21.432Z,13.28
2022-10-02T02:39:59.197Z,13.27
2022-10-02T02:42:30.692Z,13.20
2022-10-02T02:45:15.689Z,13.16
2022-10-02T02:47:49.140Z,13.11
2022-10-02T02:50:24.095Z,13.09
2022-10-02T02:52:59.359Z,13.10
2022-10-02T02:55:33.196Z,12.99
2022-10-02T02:58:07.746Z,13.06
2022-10-02T03:00:34.407Z,13.06
2022-10-02T03:03:01.029Z,13.07
2022-10-02T03:05:29.516Z,13.08
2022-10-02T03:08:01.553Z,13.11
2022-10-02T03:10:32.500Z,13.11
2022-10-02T03:13:14.741Z,13.14
2022-10-02T03:15:53.679Z,13.13
2022-10-02T03:18:46.672Z,13.14
2022-10-02T03:21:18.814Z,13.10
2022-10-02T03:24:03.729Z,13.10
2022-10-02T03:26:42.182Z,13.12
2022-10-02T03:29:19.131Z,13.10
2022-10-02T03:31:46.814Z,13.07
2022-10-02T03:34:13.521Z,13.05
2022-10-02T03:36:40.096Z,13.04
2022-10-02T03:41:54.435Z,12.93
2022-10-02T03:44:20.917Z,12.97
2022-10-02T03:46:47.315Z,12.91
2022-10-02T03:49:13.666Z,12.88
2022-10-02T03:51:40.019Z,12.86
2022-10-02T03:54:15.448Z,12.85
2022-10-02T03:56:53.061Z,12.81
2022-10-02T04:00:04.711Z,12.84
2022-10-02T04:02:41.206Z,12.77
2022-10-02T04:05:27.767Z,12.71
2022-10-02T04:08:11.321Z,12.69
2022-10-02T04:11:03.204Z,12.68
2022-10-02T04:13:45.989Z,12.63
2022-10-02T04:16:27.862Z,12.61
2022-10-02T04:19:14.574Z,12.57
2022-10-02T04:22:16.134Z,12.56
2022-10-02T04:24:47.604Z,12.49
2022-10-02T04:27:19.626Z,12.47
2022-10-02T04:29:55.012Z,12.44
2022-10-02T04:32:26.630Z,12.43
2022-10-02T04:34:54.268Z,12.40
2022-10-02T04:37:38.517Z,12.40
2022-10-02T04:40:13.946Z,12.38
2022-10-02T04:43:10.700Z,12.40
2022-10-02T04:45:51.085Z,12.33
2022-10-02T04:48:39.508Z,12.37
2022-10-02T04:51:18.140Z,12.38
2022-10-02T04:53:58.157Z,12.40
2022-10-02T04:57:02.516Z,12.45
2022-10-02T04:59:59.466Z,12.45
2022-10-02T05:02:38.760Z,12.48
2022-10-02T05:05:28.466Z,12.53
2022-10-02T05:08:15.843Z,12.58
2022-10-02T05:11:21.027Z,12.61
2022-10-02T05:13:54.354Z,12.63
2022-10-02T05:16:51.003Z,12.63
2022-10-02T05:19:43.373Z,12.65
2022-10-02T05:22:22.934Z,12.63
2022-10-02T05:25:10.652Z,12.68
2022-10-02T05:27:43.027Z,12.67
2022-10-02T05:30:13.751Z,12.65
2022-10-02T05:33:15.756Z,12.68
2022-10-02T05:36:06.998Z,12.68
2022-10-02T05:38:54.874Z,12.68
2022-10-02T05:41:40.207Z,12.65
2022-10-02T05:44:16.320Z,12.65
2022-10-02T05:47:19.250Z,12.71
2022-10-02T05:49:53.580Z,12.71
2022-10-02T05:52:25.884Z,12.73
2022-10-02T05:55:18.376Z,12.79
2022-10-02T05:58:14.481Z,12.84
2022-10-02T06:01:11.028Z,12.89
2022-10-02T06:04:02.593Z,12.97
2022-10-02T06:06:45.700Z,13.00
2022-10-02T06:09:20.095Z,13.08
2022-10-02T06:11:55.856Z,13.12
2022-10-02T06:14:40.617Z,13.18
2022-10-02T06:17:17.772Z,13.20
2022-10-02T06:19:49.333Z,13.24
2022-10-02T06:22:26.676Z,13.20
2022-10-02T06:25:14.569Z,13.27
2022-10-02T06:28:02.883Z,13.34
2022-10-02T06:30:32.020Z,13.31
2022-10-02T06:33:28.136Z,13.33
2022-10-02T06:36:03.334Z,13.34
2022-10-02T06:38:50.707Z,13.36
2022-10-02T06:41:56.589Z,13.37
2022-10-02T06:45:18.941Z,13.47
2022-10-02T06:48:01.869Z,13.44
2022-10-02T06:50:34.200Z,13.48
2022-10-02T06:53:22.841Z,13.56
2022-10-02T06:56:20.231Z,13.58
2022-10-02T06:59:07.946Z,13.58
2022-10-02T07:01:54.952Z,13.60
2022-10-02T07:04:31.241Z,13.61
2022-10-02T07:07:03.496Z,13.63
2022-10-02T07:09:48.686Z,13.69
2022-10-02T07:12:46.960Z,13.72
2022-10-02T07:15:38.329Z,13.77
2022-10-02T07:18:26.346Z,13.82
2022-10-02T07:20:58.852Z,13.82
2022-10-02T07:23:44.426Z,13.99
2022-10-02T07:26:38.741Z,14.02
2022-10-02T07:29:40.989Z,14.04
2022-10-02T07:32:11.899Z,13.98
2022-10-02T07:34:51.926Z,13.95
2022-10-02T07:37:31.276Z,13.97
2022-10-02T07:40:26.894Z,13.95
2022-10-02T07:43:11.372Z,13.95
2022-10-02T07:45:41.875Z,13.90
2022-10-02T07:48:18.783Z,13.89
2022-10-02T07:51:29.659Z,13.94
2022-10-02T07:54:20.783Z,13.95
2022-10-02T07:56:51.909Z,13.98
2022-10-02T07:59:18.861Z,14.02
2022-10-02T08:01:48.090Z,14.05
2022-10-02T08:04:19.228Z,14.10
2022-10-02T08:06:47.812Z,14.16
2022-10-02T08:09:32.623Z,14.25
2022-10-02T08:12:12.828Z,14.36
2022-10-02T08:14:43.139Z,14.58
2022-10-02T08:17:25.371Z,14.67
2022-10-02T08:19:52.527Z,14.76
2022-10-02T08:22:30.831Z,14.91
2022-10-02T08:25:03.127Z,14.99
2022-10-02T08:27:47.747Z,15.00
2022-10-02T08:30:15.619Z,15.00
2022-10-02T08:32:43.671Z,14.97
2022-10-02T08:35:15.730Z,14.96
2022-10-02T08:38:10.248Z,14.96
2022-10-02T08:41:00.514Z,14.88
2022-10-02T08:43:45.808Z,14.97
2022-10-02T08:46:36.801Z,14.81
2022-10-02T08:49:54.602Z,14.76
2022-10-02T08:52:39.821Z,14.69
2022-10-02T08:55:30.470Z,14.68
2022-10-02T08:58:18.613Z,14.71
2022-10-02T09:01:03.798Z,14.70
2022-10-02T09:04:00.695Z,14.75
2022-10-02T09:07:04.776Z,14.83
2022-10-02T09:09:45.856Z,14.92
2022-10-02T09:12:33.556Z,15.01
2022-10-02T09:15:18.120Z,15.07
2022-10-02T09:18:23.702Z,15.16
2022-10-02T09:21:18.702Z,15.24
2022-10-02T09:24:03.817Z,15.28
2022-10-02T09:27:11.472Z,15.36
2022-10-02T09:29:56.519Z,15.40
2022-10-02T09:32:47.252Z,15.55
2022-10-02T09:35:47.656Z,15.69
2022-10-02T09:38:45.900Z,15.87
2022-10-02T09:41:53.950Z,16.00
2022-10-02T09:44:30.117Z,16.05
2022-10-02T09:47:19.308Z,16.09
2022-10-02T09:49:57.612Z,16.11
2022-10-02T09:52:45.572Z,16.12
2022-10-02T09:55:22.052Z,16.18
2022-10-02T09:58:40.798Z,16.31
2022-10-02T10:01:33.613Z,16.45
2022-10-02T10:04:24.773Z,16.62
2022-10-02T10:07:06.029Z,16.75
2022-10-02T10:09:41.525Z,16.97
2022-10-02T10:12:34.557Z,17.21
2022-10-02T10:15:38.188Z,17.49
2022-10-02T10:18:20.454Z,17.73
2022-10-02T10:21:21.032Z,17.86
2022-10-02T10:24:14.413Z,18.20
2022-10-02T10:27:07.853Z,18.36
2022-10-02T10:29:54.271Z,18.48
2022-10-02T10:32:20.546Z,18.63
2022-10-02T10:34:53.074Z,18.83
2022-10-02T10:37:53.585Z,18.91
2022-10-02T10:40:50.740Z,19.18
2022-10-02T10:43:36.335Z,19.38
2022-10-02T10:46:31.812Z,19.46
2022-10-02T10:49:33.338Z,19.69
2022-10-02T10:52:28.741Z,19.87
2022-10-02T10:55:02.591Z,19.95
2022-10-02T10:57:59.929Z,20.20
2022-10-02T11:00:38.911Z,20.32
2022-10-02T11:03:27.699Z,20.58
2022-10-02T11:06:26.395Z,20.70
2022-10-02T11:09:10.996Z,20.77
2022-10-02T11:11:49.447Z,20.95
2022-10-02T11:14:35.448Z,21.16
2022-10-02T11:17:48.273Z,21.26
2022-10-02T11:20:45.158Z,21.24
2022-10-02T11:23:33.298Z,21.15
2022-10-02T11:26:23.788Z,21.12
2022-10-02T11:29:21.120Z,21.17
2022-10-02T11:31:59.801Z,21.07
2022-10-02T11:34:57.340Z,21.08
2022-10-02T11:37:38.750Z,21.04
2022-10-02T11:40:25.598Z,20.95
2022-10-02T11:43:27.541Z,20.84
2022-10-02T11:46:09.812Z,20.76
2022-10-02T11:48:58.995Z,20.80
2022-10-02T11:51:55.136Z,20.81
2022-10-02T11:54:44.348Z,20.79
2022-10-02T11:57:30.113Z,21.01
2022-10-02T12:00:08.776Z,20.99
2022-10-02T12:02:47.714Z,21.12
2022-10-02T12:05:30.357Z,21.20
2022-10-02T12:08:17.423Z,21.27
2022-10-02T12:11:02.507Z,21.35
2022-10-02T12:14:01.975Z,21.51
2022-10-02T12:16:42.076Z,21.57
2022-10-02T12:19:27.343Z,21.72
2022-10-02T12:22:53.641Z,21.75
2022-10-02T12:25:58.287Z,21.78
2022-10-02T12:28:33.459Z,21.82
2022-10-02T12:31:15.156Z,21.85
2022-10-02T12:33:56.753Z,21.87
2022-10-02T12:36:39.295Z,21.86
2022-10-02T12:39:11.856Z,21.84
2022-10-02T12:42:06.665Z,21.88
2022-10-02T12:44:58.172Z,21.82
2022-10-02T12:47:52.601Z,21.72
2022-10-02T12:50:44.036Z,21.57
2022-10-02T12:53:44.236Z,21.52
2022-10-02T12:56:34.895Z,21.42
2022-10-02T12:59:20.902Z,21.27
2022-10-02T13:02:06.243Z,21.11
2022-10-02T13:04:51.492Z,20.91
2022-10-02T13:08:07.044Z,20.66
2022-10-02T13:10:45.680Z,20.35
2022-10-02T13:13:41.946Z,20.12
2022-10-02T13:16:15.741Z,19.92
2022-10-02T13:19:09.600Z,19.78
2022-10-02T13:21:39.089Z,19.67
2022-10-02T13:24:31.361Z,19.72
2022-10-02T13:27:18.488Z,19.76
2022-10-02T13:30:19.243Z,19.99
2022-10-02T13:33:05.896Z,20.13
2022-10-02T13:35:38.327Z,20.27
2022-10-02T13:38:14.036Z,20.43
2022-10-02T13:41:01.986Z,20.55
2022-10-02T13:43:42.629Z,20.54
2022-10-02T13:46:21.125Z,20.61
2022-10-02T13:49:08.894Z,20.66
2022-10-02T13:52:13.172Z,20.73
2022-10-02T13:54:53.921Z,20.67
2022-10-02T13:57:44.108Z,20.48
2022-10-02T14:00:22.848Z,20.39
2022-10-02T14:03:14.099Z,20.19
2022-10-02T14:05:57.823Z,19.93
2022-10-02T14:08:57.356Z,19.63
2022-10-02T14:11:48.679Z,19.48
2022-10-02T14:14:43.073Z,19.37
2022-10-02T14:17:24.889Z,19.29
2022-10-02T14:20:16.363Z,19.31
2022-10-02T14:23:27.100Z,19.38
2022-10-02T14:26:20.184Z,19.44
2022-10-02T14:29:29.063Z,19.51
2022-10-02T14:32:31.345Z,19.55
2022-10-02T14:35:32.886Z,19.60
2022-10-02T14:38:18.039Z,19.60
2022-10-02T14:40:57.812Z,19.59
2022-10-02T14:43:39.287Z,19.64
2022-10-02T14:46:38.039Z,19.73
2022-10-02T14:49:13.424Z,19.77
2022-10-02T14:52:10.055Z,19.83
2022-10-02T14:55:27.066Z,19.95
2022-10-02T14:58:08.587Z,19.93
2022-10-02T15:01:10.612Z,19.96
2022-10-02T15:03:43.745Z,19.95
2022-10-02T15:06:52.389Z,19.96
2022-10-02T15:09:27.575Z,19.83
2022-10-02T15:12:06.258Z,19.76
2022-10-02T15:15:00.257Z,19.75
2022-10-02T15:17:57.327Z,19.73
2022-10-02T15:20:30.138Z,19.48
2022-10-02T15:23:07.322Z,19.41
2022-10-02T15:25:55.462Z,19.23
2022-10-02T15:28:43.536Z,18.92
2022-10-02T15:31:24.520Z,18.71
2022-10-02T15:34:15.535Z,18.60
2022-10-02T15:36:53.930Z,18.50
2022-10-02T15:39:29.339Z,18.49
2022-10-02T15:42:01.615Z,18.50
2022-10-02T15:44:42.878Z,18.52
2022-10-02T15:47:15.118Z,18.46
2022-10-02T15:50:00.106Z,18.43
2022-10-02T15:52:47.519Z,18.35
2022-10-02T15:55:35.084Z,18.25
2022-10-02T15:58:24.382Z,18.14
2022-10-02T16:01:00.754Z,18.06
2022-10-02T16:03:41.552Z,17.96
2022-10-02T16:06:33.074Z,17.87
2022-10-02T16:09:22.382Z,17.75
2022-10-02T16:12:03.655Z,17.62
2022-10-02T16:15:12.084Z,17.50
2022-10-02T16:17:52.229Z,17.35
2022-10-02T16:20:42.347Z,17.35
2022-10-02T16:23:29.743Z,17.12
2022-10-02T16:26:21.203Z,16.99
2022-10-02T16:28:47.618Z,16.84
2022-10-02T16:31:34.734Z,16.74
2022-10-02T16:34:10.871Z,16.67
2022-10-02T16:37:07.378Z,16.58
2022-10-02T16:39:44.400Z,16.45
2022-10-02T16:42:20.346Z,16.41
2022-10-02T16:45:04.611Z,16.33
2022-10-02T16:47:52.135Z,16.29
2022-10-02T16:50:30.345Z,16.20
2022-10-02T16:53:07.377Z,16.13
2022-10-02T16:55:40.235Z,16.04
2022-10-02T16:58:09.664Z,16.00
2022-10-02T17:00:48.351Z,15.94
2022-10-02T17:03:29.002Z,15.89
2022-10-02T17:06:06.472Z,15.81
2022-10-02T17:08:54.751Z,15.78
2022-10-02T17:11:30.484Z,15.69
2022-10-02T17:14:16.505Z,15.62
2022-10-02T17:16:56.118Z,15.56
2022-10-02T17:19:27.810Z,15.54
2022-10-02T17:22:11.273Z,15.48
2022-10-02T17:25:05.258Z,15.45
2022-10-02T17:27:35.191Z,15.38
2022-10-02T17:30:16.439Z,15.33
2022-10-02T17:32:45.926Z,15.28
2022-10-02T17:35:31.588Z,15.24
2022-10-02T17:38:24.128Z,15.21
2022-10-02T17:41:18.403Z,15.18
2022-10-02T17:44:11.367Z,15.12
2022-10-02T17:46:49.645Z,15.04
2022-10-02T17:49:27.051Z,15.01
2022-10-02T17:52:33.511Z,14.97
2022-10-02T17:55:49.532Z,14.89
2022-10-02T17:58:30.195Z,14.85
2022-10-02T18:01:18.734Z,14.81
2022-10-02T18:03:59.168Z,14.75
2022-10-02T18:06:34.148Z,14.69
2022-10-02T18:09:23.323Z,14.68
2022-10-02T18:12:10.787Z,14.63
2022-10-02T18:14:52.155Z,14.60
2022-10-02T18:17:54.430Z,14.58
2022-10-02T18:20:35.203Z,14.52
2022-10-02T18:23:41.473Z,14.49
2022-10-02T18:26:23.043Z,14.41
2022-10-02T18:29:09.820Z,14.35
2022-10-02T18:31:56.208Z,14.34
2022-10-02T18:34:26.993Z,14.28
2022-10-02T18:37:20.244Z,14.35
2022-10-02T18:40:22.533Z,14.25
2022-10-02T18:43:03.820Z,14.18
2022-10-02T18:45:43.633Z,14.13
2022-10-02T18:48:45.748Z,14.07
2022-10-02T18:51:19.911Z,14.02
2022-10-02T18:54:05.250Z,13.98
2022-10-02T18:57:05.361Z,13.97
2022-10-02T18:59:35.484Z,13.91
2022-10-02T19:02:17.743Z,13.84
2022-10-02T19:04:52.192Z,13.87
2022-10-02T19:07:29.314Z,13.85
2022-10-02T19:10:21.473Z,13.87
2022-10-02T19:12:52.482Z,13.86
2022-10-02T19:15:29.454Z,13.89
2022-10-02T19:18:01.300Z,13.94
2022-10-02T19:20:35.731Z,14.00
2022-10-02T19:23:05.688Z,14.02
2022-10-02T19:25:33.321Z,14.08
2022-10-02T19:28:01.721Z,14.13
2022-10-02T19:30:31.725Z,14.18
2022-10-02T19:33:03.203Z,14.19
2022-10-02T19:35:40.810Z,14.23
2022-10-02T19:38:33.253Z,14.25
2022-10-02T19:41:09.874Z,14.20
2022-10-02T19:43:46.402Z,14.20
2022-10-02T19:46:15.050Z,14.14
2022-10-02T19:48:41.869Z,14.04
2022-10-02T19:51:17.250Z,14.10
2022-10-02T19:53:53.730Z,14.07
2022-10-02T19:56:30.093Z,14.03
2022-10-02T19:59:11.121Z,13.99
2022-10-02T20:02:00.198Z,13.99
2022-10-02T20:04:30.347Z,13.94
2022-10-02T20:06:59.056Z,13.91
2022-10-02T20:10:31.032Z,13.96
2022-10-02T20:13:10.773Z,13.95
2022-10-02T20:16:08.483Z,13.95
2022-10-02T20:18:36.230Z,13.98
2022-10-02T20:21:22.479Z,14.02
2022-10-02T20:23:53.814Z,14.03
2022-10-02T20:26:27.718Z,14.01
2022-10-02T20:28:59.686Z,14.00
2022-10-02T20:31:43.423Z,13.98
2022-10-02T20:34:22.273Z,13.91
2022-10-02T20:37:02.450Z,13.88
2022-10-02T20:39:36.055Z,13.80
2022-10-02T20:42:22.869Z,13.71
2022-10-02T20:44:50.655Z,13.64
2022-10-02T20:47:38.646Z,13.62
2022-10-02T20:50:23.353Z,13.59
2022-10-02T20:52:55.737Z,13.54
2022-10-02T20:55:42.531Z,13.49
2022-10-02T20:58:33.580Z,13.44
2022-10-02T21:01:19.336Z,13.41
2022-10-02T21:04:18.655Z,13.30
2022-10-02T21:07:07.777Z,13.31
2022-10-02T21:10:07.890Z,13.27
2022-10-02T21:13:00.827Z,13.25
2022-10-02T21:15:52.210Z,13.20
2022-10-02T21:18:37.143Z,13.15
2022-10-02T21:21:23.171Z,13.14
2022-10-02T21:24:23.298Z,13.16
2022-10-02T21:26:59.541Z,13.14
2022-10-02T21:29:44.239Z,13.15
2022-10-02T21:32:35.211Z,13.17
2022-10-02T21:35:13.801Z,13.17
2022-10-02T21:37:53.579Z,13.18
2022-10-02T21:40:42.421Z,13.18
2022-10-02T21:43:42.388Z,13.19
2022-10-02T21:46:46.387Z,13.21
2022-10-02T21:49:41.819Z,13.21
2022-10-02T21:52:14.199Z,13.18
2022-10-02T21:55:39.763Z,13.22
2022-10-02T21:58:33.937Z,13.23
2022-10-02T22:01:15.500Z,13.23
2022-10-02T22:03:54.924Z,13.25
2022-10-02T22:06:25.815Z,13.26
2022-10-02T22:09:19.611Z,13.26
2022-10-02T22:11:56.059Z,13.22
2022-10-02T22:14:32.275Z,13.19
2022-10-02T22:17:23.591Z,13.19
2022-10-02T22:20:24.559Z,13.17
2022-10-02T22:23:04.974Z,13.10
2022-10-02T22:26:06.797Z,13.11
2022-10-02T22:28:45.524Z,13.09
2022-10-02T22:31:25.119Z,13.07
2022-10-02T22:34:05.335Z,13.11
2022-10-02T22:36:34.931Z,13.21
2022-10-02T22:39:01.263Z,13.13
2022-10-02T22:41:36.101Z,13.11
2022-10-02T22:44:12.092Z,13.09
2022-10-02T22:47:12.093Z,13.12
2022-10-02T22:49:48.245Z,13.09
2022-10-02T22:52:36.202Z,13.09
2022-10-02T22:55:18.842Z,13.06
2022-10-02T22:57:52.653Z,13.04
2022-10-02T23:00:22.366Z,13.02
2022-10-02T23:02:58.691Z,13.00
2022-10-02T23:05:40.967Z,12.98
2022-10-02T23:08:36.346Z,12.89
2022-10-02T23:11:16.109Z,12.91
2022-10-02T23:14:12.691Z,12.91
2022-10-02T23:16:49.007Z,12.86
2022-10-02T23:19:50.697Z,12.83
2022-10-02T23:22:29.497Z,12.83
2022-10-02T23:25:14.902Z,12.82
2022-10-02T23:27:51.309Z,12.83
2022-10-02T23:30:20.502Z,12.79
2022-10-02T23:33:13.732Z,12.81
2022-10-02T23:35:58.939Z,12.83
2022-10-02T23:38:44.536Z,12.84
2022-10-02T23:41:40.749Z,12.80
2022-10-02T23:44:07.340Z,12.79
2022-10-02T23:46:53.937Z,12.76
2022-10-02T23:49:30.449Z,12.77
2022-10-02T23:52:28.082Z,12.77
2022-10-02T23:55:17.397Z,12.72
2022-10-02T23:58:02.126Z,12.73
